createdAt,value
2022-11-24T00:01:22.458Z,2.95
2022-11-24T00:04:02.872Z,2.55
2022-11-24T00:06:32.323Z,3.75
2022-11-24T00:08:59.993Z,4.20
2022-11-24T00:11:32.995Z,2.70
2022-11-24T00:14:01.745Z,2.78
2022-11-24T00:16:31.538Z,2.85
2022-11-24T00:19:00.799Z,4.10
2022-11-24T00:21:30.368Z,4.65
2022-11-24T00:23:58.721Z,2.58
2022-11-24T00:26:32.103Z,2.80
2022-11-24T00:29:03.021Z,2.50
2022-11-24T00:31:33.635Z,1.70
2022-11-24T00:34:03.565Z,1.98
2022-11-24T00:36:33.260Z,2.80
2022-11-24T00:39:03.384Z,2.42
2022-11-24T00:41:31.897Z,2.05
2022-11-24T00:44:00.127Z,2.53
2022-11-24T00:46:28.543Z,1.98
2022-11-24T00:48:56.593Z,3.92
2022-11-24T00:51:27.022Z,2.88
2022-11-24T00:53:56.370Z,3.85
2022-11-24T00:56:24.841Z,2.72
2022-11-24T00:58:52.989Z,5.72
2022-11-24T01:01:23.605Z,2.50
2022-11-24T01:03:51.816Z,2.85
2022-11-24T01:06:22.041Z,2.33
2022-11-24T01:08:49.855Z,2.72
2022-11-24T01:11:18.765Z,4.28
2022-11-24T01:13:48.753Z,2.47
2022-11-24T01:16:16.312Z,3.17
2022-11-24T01:18:44.157Z,3.05
2022-11-24T01:21:11.806Z,1.80
2022-11-24T01:23:39.564Z,3.63
2022-11-24T01:26:08.876Z,3.13
2022-11-24T01:28:40.564Z,3.95
2022-11-24T01:31:11.846Z,2.05
2022-11-24T01:33:39.877Z,1.88
2022-11-24T01:36:08.178Z,3.22
2022-11-24T01:38:35.843Z,1.92
2022-11-24T01:41:08.217Z,2.95
2022-11-24T01:46:16.057Z,3.25
2022-11-24T01:48:49.871Z,1.73
2022-11-24T01:51:30.395Z,1.70
2022-11-24T01:54:01.843Z,2.47
2022-11-24T01:56:29.753Z,2.43
2022-11-24T01:59:00.663Z,2.58
2022-11-24T02:01:29.303Z,2.03
2022-11-24T02:03:58.208Z,2.38
2022-11-24T02:06:30.317Z,1.42
2022-11-24T02:09:09.062Z,1.65
2022-11-24T02:11:39.843Z,2.72
2022-11-24T02:14:10.481Z,2.58
2022-11-24T02:16:40.589Z,2.05
2022-11-24T02:19:19.337Z,1.10
2022-11-24T02:21:46.912Z,1.63
2022-11-24T02:24:25.662Z,3.33
2022-11-24T02:26:53.226Z,2.33
2022-11-24T02:29:21.512Z,1.95
2022-11-24T02:31:56.171Z,1.85
2022-11-24T02:34:23.937Z,1.55
2022-11-24T02:36:51.478Z,1.90
2022-11-24T02:39:19.090Z,1.85
2022-11-24T02:41:54.911Z,1.40
2022-11-24T02:44:26.565Z,2.58
2022-11-24T02:47:07.923Z,1.30
2022-11-24T02:49:35.578Z,2.40
2022-11-24T02:52:03.722Z,1.85
2022-11-24T02:54:32.217Z,1.60
2022-11-24T02:57:00.302Z,1.15
2022-11-24T02:59:27.887Z,2.08
2022-11-24T03:01:55.547Z,1.83
2022-11-24T03:04:23.186Z,2.17
2022-11-24T03:06:50.816Z,1.30
2022-11-24T03:09:18.423Z,1.98
2022-11-24T03:11:46.036Z,2.90
2022-11-24T03:14:13.605Z,1.10
2022-11-24T03:16:41.153Z,1.70
2022-11-24T03:19:08.720Z,3.63
2022-11-24T03:21:37.928Z,2.65
2022-11-24T03:24:05.825Z,1.25
2022-11-24T03:26:35.283Z,1.02
2022-11-24T03:29:02.885Z,1.13
2022-11-24T03:31:30.565Z,1.48
2022-11-24T03:33:58.224Z,2.55
2022-11-24T03:36:25.833Z,2.03
2022-11-24T03:38:53.806Z,1.25
2022-11-24T03:41:21.771Z,1.73
2022-11-24T03:43:49.329Z,1.38
2022-11-24T03:46:17.003Z,1.80
2022-11-24T03:48:44.750Z,1.60
2022-11-24T03:51:12.383Z,3.20
2022-11-24T03:53:39.976Z,1.65
2022-11-24T03:56:07.915Z,2.58
2022-11-24T03:58:35.507Z,1.70
2022-11-24T04:01:03.567Z,1.35
2022-11-24T04:03:31.182Z,1.65
2022-11-24T04:05:58.728Z,2.03
2022-11-24T04:08:26.402Z,1.45
2022-11-24T04:10:55.288Z,1.65
2022-11-24T04:13:24.813Z,1.90
2022-11-24T04:15:53.024Z,2.10
2022-11-24T04:18:20.984Z,2.10
2022-11-24T04:20:51.434Z,2.08
2022-11-24T04:23:19.807Z,3.25
2022-11-24T04:25:47.601Z,2.13
2022-11-24T04:28:15.092Z,2.40
2022-11-24T04:30:44.715Z,1.40
2022-11-24T04:33:13.389Z,1.50
2022-11-24T04:35:40.908Z,1.95
2022-11-24T04:38:08.363Z,2.35
2022-11-24T04:40:35.913Z,1.63
2022-11-24T04:43:03.379Z,2.80
2022-11-24T04:45:30.886Z,2.17
2022-11-24T04:47:58.373Z,1.40
2022-11-24T04:50:25.864Z,1.70
2022-11-24T04:52:53.575Z,2.22
2022-11-24T04:55:21.031Z,2.55
2022-11-24T04:57:48.597Z,2.10
2022-11-24T05:00:16.365Z,1.70
2022-11-24T05:02:43.819Z,2.42
2022-11-24T05:05:11.546Z,1.90
2022-11-24T05:07:39.252Z,0.90
2022-11-24T05:10:25.021Z,1.25
2022-11-24T05:12:59.506Z,1.65
2022-11-24T05:15:27.668Z,0.57
2022-11-24T05:17:55.517Z,0.50
2022-11-24T05:20:23.221Z,0.30
2022-11-24T05:22:50.758Z,0.32
2022-11-24T05:25:18.660Z,0.22
2022-11-24T05:27:46.177Z,0.30
2022-11-24T05:30:14.284Z,0.30
2022-11-24T05:32:42.074Z,0.35
2022-11-24T05:35:11.061Z,0.30
2022-11-24T05:37:39.039Z,0.20
2022-11-24T05:40:07.228Z,0.30
2022-11-24T05:42:47.848Z,0.20
2022-11-24T05:45:20.484Z,0.35
2022-11-24T05:47:48.859Z,0.20
2022-11-24T05:50:18.486Z,0.40
2022-11-24T05:52:46.551Z,0.32
2022-11-24T05:55:15.681Z,0.65
2022-11-24T05:57:43.609Z,0.50
2022-11-24T06:00:11.845Z,0.50
2022-11-24T06:02:39.443Z,0.45
2022-11-24T06:05:07.328Z,0.82
2022-11-24T06:07:34.888Z,1.27
2022-11-24T06:10:02.452Z,0.50
2022-11-24T06:12:29.884Z,0.60
2022-11-24T06:14:57.418Z,0.80
2022-11-24T06:17:25.340Z,0.52
2022-11-24T06:19:52.784Z,0.65
2022-11-24T06:22:20.331Z,0.70
2022-11-24T06:24:50.193Z,0.98
2022-11-24T06:27:17.969Z,0.80
2022-11-24T06:29:45.560Z,1.20
2022-11-24T06:32:13.113Z,1.48
2022-11-24T06:34:40.751Z,1.27
2022-11-24T06:37:08.336Z,1.02
2022-11-24T06:39:35.918Z,0.98
2022-11-24T06:42:04.670Z,1.80
2022-11-24T06:44:32.576Z,1.48
2022-11-24T06:47:00.388Z,1.40
2022-11-24T06:49:27.984Z,1.70
2022-11-24T06:51:56.581Z,1.70
2022-11-24T06:54:24.099Z,1.75
2022-11-24T06:56:57.477Z,2.70
2022-11-24T06:59:25.073Z,3.75
2022-11-24T07:01:52.549Z,3.53
2022-11-24T07:04:20.258Z,3.70
2022-11-24T07:06:47.895Z,3.83
2022-11-24T07:09:15.484Z,2.88
2022-11-24T07:11:45.850Z,3.28
2022-11-24T07:14:13.428Z,2.40
2022-11-24T07:16:41.422Z,3.70
2022-11-24T07:19:10.572Z,4.47
2022-11-24T07:21:38.215Z,3.38
2022-11-24T07:24:06.298Z,3.90
2022-11-24T07:26:37.479Z,4.05
2022-11-24T07:29:06.343Z,4.53
2022-11-24T07:31:34.217Z,5.15
2022-11-24T07:34:01.870Z,3.65
2022-11-24T07:36:29.684Z,4.63
2022-11-24T07:38:57.302Z,4.93
2022-11-24T07:41:24.895Z,4.43
2022-11-24T07:43:53.037Z,4.53
2022-11-24T07:46:21.328Z,5.00
2022-11-24T07:48:49.078Z,6.03
2022-11-24T07:51:16.968Z,4.28
2022-11-24T07:53:44.694Z,6.50
2022-11-24T07:56:12.669Z,5.50
2022-11-24T07:58:40.424Z,4.25
2022-11-24T08:01:15.923Z,4.97
2022-11-24T08:03:44.456Z,4.65
2022-11-24T08:06:25.136Z,4.20
2022-11-24T08:08:55.768Z,5.63
2022-11-24T08:11:23.575Z,4.57
2022-11-24T08:13:51.108Z,4.50
2022-11-24T08:16:20.478Z,6.53
2022-11-24T08:18:54.735Z,4.63
2022-11-24T08:21:23.348Z,4.88
2022-11-24T08:23:51.468Z,4.43
2022-11-24T08:26:19.386Z,5.22
2022-11-24T08:28:48.204Z,4.68
2022-11-24T08:31:18.576Z,4.85
2022-11-24T08:33:46.870Z,4.43
2022-11-24T08:36:17.064Z,4.25
2022-11-24T08:38:45.260Z,3.67
2022-11-24T08:41:15.855Z,4.07
2022-11-24T08:43:43.850Z,3.85
2022-11-24T08:46:14.385Z,3.55
2022-11-24T08:48:42.091Z,3.35
2022-11-24T08:51:12.264Z,3.53
2022-11-24T08:53:40.800Z,2.10
2022-11-24T08:56:10.022Z,2.60
2022-11-24T08:58:38.607Z,3.08
2022-11-24T09:01:14.882Z,2.80
2022-11-24T09:03:49.939Z,2.33
2022-11-24T09:06:22.633Z,3.55
2022-11-24T09:08:50.347Z,3.03
2022-11-24T09:11:18.573Z,1.60
2022-11-24T09:13:46.574Z,2.17
2022-11-24T09:16:22.778Z,2.83
2022-11-24T09:19:06.502Z,2.10
2022-11-24T09:21:37.797Z,2.53
2022-11-24T09:24:06.434Z,2.67
2022-11-24T09:26:36.957Z,1.92
2022-11-24T09:29:07.958Z,2.75
2022-11-24T09:31:37.335Z,1.73
2022-11-24T09:34:07.129Z,1.35
2022-11-24T09:36:35.359Z,1.27
2022-11-24T09:39:03.027Z,1.45
2022-11-24T09:41:51.913Z,2.00
2022-11-24T09:44:31.220Z,2.25
2022-11-24T09:46:59.737Z,1.17
2022-11-24T09:49:51.233Z,2.67
2022-11-24T09:52:34.809Z,2.25
2022-11-24T09:55:06.151Z,1.33
2022-11-24T09:57:37.891Z,3.33
2022-11-24T10:00:14.198Z,1.88
2022-11-24T10:02:41.733Z,1.30
2022-11-24T10:05:09.622Z,1.58
2022-11-24T10:07:48.288Z,1.77
2022-11-24T10:10:25.485Z,2.10
2022-11-24T10:13:36.419Z,1.58
2022-11-24T10:16:27.018Z,1.77
2022-11-24T10:19:06.507Z,2.25
2022-11-24T10:21:38.148Z,1.85
2022-11-24T10:24:33.269Z,2.00
2022-11-24T10:27:19.406Z,1.73
2022-11-24T10:29:52.459Z,1.73
2022-11-24T10:32:29.082Z,1.45
2022-11-24T10:35:07.393Z,3.10
2022-11-24T10:37:41.433Z,1.38
2022-11-24T10:40:56.842Z,2.42
2022-11-24T10:43:27.951Z,1.88
2022-11-24T10:46:26.205Z,1.98
2022-11-24T10:49:06.167Z,1.98
2022-11-24T10:51:36.979Z,1.48
2022-11-24T10:54:19.385Z,2.47
2022-11-24T10:56:48.292Z,2.30
2022-11-24T10:59:30.771Z,2.45
2022-11-24T11:04:29.949Z,2.22
2022-11-24T11:07:20.755Z,2.57
2022-11-24T11:09:49.632Z,2.17
2022-11-24T11:12:45.048Z,2.80
2022-11-24T11:15:25.944Z,2.65
2022-11-24T11:17:58.534Z,1.85
2022-11-24T11:20:30.498Z,1.73
2022-11-24T11:23:00.364Z,4.03
2022-11-24T11:25:31.736Z,3.15
2022-11-24T11:28:18.432Z,1.80
2022-11-24T11:31:16.654Z,2.85
2022-11-24T11:34:03.881Z,3.20
2022-11-24T11:36:34.102Z,2.03
2022-11-24T11:39:01.782Z,2.03
2022-11-24T11:41:34.858Z,2.92
2022-11-24T11:44:15.239Z,2.58
2022-11-24T11:46:44.759Z,2.55
2022-11-24T11:49:13.357Z,1.58
2022-11-24T11:51:56.648Z,4.20
2022-11-24T11:54:38.118Z,2.65
2022-11-24T11:57:12.389Z,1.80
2022-11-24T11:59:56.766Z,1.95
2022-11-24T12:02:40.764Z,1.40
2022-11-24T12:05:35.190Z,1.73
2022-11-24T12:08:20.781Z,2.30
2022-11-24T12:11:05.647Z,2.03
2022-11-24T12:13:49.094Z,2.22
2022-11-24T12:16:35.537Z,2.17
2022-11-24T12:19:28.472Z,3.08
2022-11-24T12:22:18.094Z,2.95
2022-11-24T12:25:02.943Z,2.92
2022-11-24T12:27:38.932Z,2.28
2022-11-24T12:30:22.024Z,1.95
2022-11-24T12:33:01.615Z,3.55
2022-11-24T12:35:41.027Z,2.50
2022-11-24T12:38:17.000Z,2.00
2022-11-24T12:41:33.528Z,2.45
2022-11-24T12:43:58.773Z,2.17
2022-11-24T12:46:47.886Z,1.83
2022-11-24T12:49:38.581Z,2.00
2022-11-24T12:52:21.730Z,2.28
2022-11-24T12:54:49.260Z,2.50
2022-11-24T12:57:27.428Z,2.50
2022-11-24T13:00:08.970Z,1.73
2022-11-24T13:02:52.293Z,1.73
2022-11-24T13:05:42.688Z,1.55
2022-11-24T13:08:10.602Z,4.32
2022-11-24T13:10:55.861Z,1.88
2022-11-24T13:13:29.021Z,3.05
2022-11-24T13:16:36.101Z,2.15
2022-11-24T13:19:12.785Z,2.22
2022-11-24T13:21:45.488Z,4.68
2022-11-24T13:24:20.002Z,2.45
2022-11-24T13:27:16.194Z,1.60
2022-11-24T13:29:47.836Z,2.45
2022-11-24T13:32:15.393Z,1.83
2022-11-24T13:34:43.375Z,2.72
2022-11-24T13:37:31.784Z,3.35
2022-11-24T13:42:56.086Z,1.95
2022-11-24T13:45:42.032Z,2.10
2022-11-24T13:48:22.527Z,1.95
2022-11-24T13:50:54.025Z,2.53
2022-11-24T13:53:41.937Z,2.70
2022-11-24T13:56:15.141Z,2.85
2022-11-24T13:58:45.012Z,2.45
2022-11-24T14:01:19.091Z,2.13
2022-11-24T14:04:21.667Z,2.25
2022-11-24T14:06:48.777Z,2.50
2022-11-24T14:09:27.890Z,2.58
2022-11-24T14:12:04.391Z,1.73
2022-11-24T14:14:31.994Z,3.38
2022-11-24T14:17:15.231Z,2.67
2022-11-24T14:19:44.783Z,2.17
2022-11-24T14:22:17.199Z,2.40
2022-11-24T14:24:46.201Z,1.98
2022-11-24T14:27:17.679Z,2.78
2022-11-24T14:29:56.745Z,2.50
2022-11-24T14:32:24.773Z,2.63
2022-11-24T14:34:54.123Z,3.58
2022-11-24T14:37:21.852Z,1.92
2022-11-24T14:39:49.560Z,2.53
2022-11-24T14:42:18.928Z,3.05
2022-11-24T14:44:54.141Z,4.43
2022-11-24T14:47:30.574Z,3.22
2022-11-24T14:50:08.797Z,4.63
2022-11-24T14:52:36.857Z,3.70
2022-11-24T14:55:21.826Z,2.20
2022-11-24T14:57:50.612Z,2.30
2022-11-24T15:00:33.317Z,4.20
2022-11-24T15:03:03.677Z,1.73
2022-11-24T15:06:02.298Z,2.08
2022-11-24T15:08:43.248Z,1.63
2022-11-24T15:11:10.848Z,2.13
2022-11-24T15:13:39.316Z,1.83
2022-11-24T15:16:17.707Z,1.73
2022-11-24T15:18:48.025Z,2.25
2022-11-24T15:21:19.575Z,2.45
2022-11-24T15:24:14.631Z,3.22
2022-11-24T15:26:42.541Z,3.55
2022-11-24T15:29:11.420Z,2.47
2022-11-24T15:31:40.533Z,2.75
2022-11-24T15:34:10.439Z,2.03
2022-11-24T15:36:38.023Z,2.33
2022-11-24T15:39:05.541Z,2.55
2022-11-24T15:41:34.221Z,2.42
2022-11-24T15:44:01.840Z,2.00
2022-11-24T15:46:37.623Z,2.70
2022-11-24T15:49:05.824Z,3.35
2022-11-24T15:51:33.804Z,2.47
2022-11-24T15:54:01.691Z,1.55
2022-11-24T15:56:36.340Z,2.63
2022-11-24T15:59:04.721Z,3.85
2022-11-24T16:01:33.852Z,1.65
2022-11-24T16:04:02.840Z,2.25
2022-11-24T16:06:30.602Z,2.17
2022-11-24T16:08:59.191Z,1.92
2022-11-24T16:11:26.837Z,1.67
2022-11-24T16:13:54.750Z,1.60
2022-11-24T16:16:24.712Z,2.85
2022-11-24T16:18:52.660Z,1.52
2022-11-24T16:21:20.238Z,2.45
2022-11-24T16:23:48.779Z,2.65
2022-11-24T16:26:16.411Z,2.10
2022-11-24T16:28:45.209Z,2.22
2022-11-24T16:31:15.661Z,2.42
2022-11-24T16:33:44.724Z,3.08
2022-11-24T16:36:12.520Z,3.65
2022-11-24T16:38:40.127Z,3.05
2022-11-24T16:41:11.100Z,2.05
2022-11-24T16:43:39.284Z,2.85
2022-11-24T16:46:09.933Z,2.10
2022-11-24T16:48:37.871Z,2.75
2022-11-24T16:51:10.158Z,2.55
2022-11-24T16:56:05.980Z,3.30
2022-11-24T16:58:33.761Z,3.10
2022-11-24T17:01:08.860Z,3.08
2022-11-24T17:03:37.490Z,2.95
2022-11-24T17:06:08.205Z,1.90
2022-11-24T17:08:37.525Z,2.75
2022-11-24T17:11:09.112Z,3.13
2022-11-24T17:13:36.708Z,2.00
2022-11-24T17:16:06.510Z,1.88
2022-11-24T17:18:35.052Z,2.20
2022-11-24T17:21:09.244Z,2.13
2022-11-24T17:23:37.296Z,3.33
2022-11-24T17:26:16.076Z,2.35
2022-11-24T17:28:44.543Z,2.47
2022-11-24T17:31:26.438Z,4.35
2022-11-24T17:33:56.270Z,4.63
2022-11-24T17:36:24.724Z,3.15
2022-11-24T17:38:52.588Z,3.20
2022-11-24T17:41:21.097Z,2.40
2022-11-24T17:43:52.944Z,2.20
2022-11-24T17:46:20.802Z,2.42
2022-11-24T17:48:48.460Z,2.63
2022-11-24T17:51:18.707Z,3.65
2022-11-24T17:53:49.815Z,2.13
2022-11-24T17:56:23.478Z,1.90
2022-11-24T17:58:55.987Z,2.42
2022-11-24T18:01:24.336Z,2.28
2022-11-24T18:03:53.657Z,2.35
2022-11-24T18:06:24.938Z,2.90
2022-11-24T18:08:54.004Z,3.22
2022-11-24T18:11:30.475Z,2.20
2022-11-24T18:14:02.138Z,2.47
2022-11-24T18:16:32.321Z,2.65
2022-11-24T18:19:08.873Z,2.63
2022-11-24T18:21:41.662Z,2.88
2022-11-24T18:24:11.309Z,2.50
2022-11-24T18:26:40.250Z,2.00
2022-11-24T18:29:08.086Z,3.70
2022-11-24T18:31:36.310Z,2.70
2022-11-24T18:34:06.070Z,2.05
2022-11-24T18:36:34.460Z,2.72
2022-11-24T18:39:06.617Z,2.63
2022-11-24T18:41:34.826Z,1.65
2022-11-24T18:44:03.276Z,3.03
2022-11-24T18:46:30.908Z,2.70
2022-11-24T18:48:58.479Z,2.88
2022-11-24T18:51:27.140Z,1.95
2022-11-24T18:53:57.969Z,3.72
2022-11-24T18:56:26.138Z,3.10
2022-11-24T18:58:55.267Z,1.67
2022-11-24T19:01:26.237Z,2.22
2022-11-24T19:03:57.496Z,2.70
2022-11-24T19:06:33.915Z,3.38
2022-11-24T19:09:14.880Z,1.85
2022-11-24T19:11:45.673Z,2.20
2022-11-24T19:14:16.346Z,2.40
2022-11-24T19:16:44.717Z,2.20
2022-11-24T19:19:13.576Z,3.45
2022-11-24T19:21:41.989Z,2.53
2022-11-24T19:24:10.962Z,1.83
2022-11-24T19:26:39.451Z,2.47
2022-11-24T19:29:08.017Z,2.78
2022-11-24T19:31:36.119Z,1.75
2022-11-24T19:34:05.467Z,2.03
2022-11-24T19:36:33.354Z,2.30
2022-11-24T19:39:00.960Z,3.35
2022-11-24T19:41:32.638Z,2.25
2022-11-24T19:44:00.783Z,1.90
2022-11-24T19:46:30.181Z,2.10
2022-11-24T19:49:00.473Z,2.42
2022-11-24T19:51:31.344Z,1.70
2022-11-24T19:53:59.431Z,3.42
2022-11-24T19:56:29.403Z,2.40
2022-11-24T19:58:57.588Z,2.83
2022-11-24T20:01:28.098Z,3.33
2022-11-24T20:04:03.731Z,2.78
2022-11-24T20:06:33.760Z,2.17
2022-11-24T20:09:02.054Z,2.00
2022-11-24T20:11:30.173Z,1.63
2022-11-24T20:13:58.279Z,1.63
2022-11-24T20:16:29.633Z,2.85
2022-11-24T20:19:02.035Z,1.95
2022-11-24T20:21:31.874Z,2.65
2022-11-24T20:24:05.363Z,1.85
2022-11-24T20:26:35.888Z,1.65
2022-11-24T20:29:04.297Z,1.38
2022-11-24T20:31:34.836Z,1.55
2022-11-24T20:34:04.947Z,1.83
2022-11-24T20:36:34.476Z,1.60
2022-11-24T20:39:05.287Z,3.03
2022-11-24T20:41:35.232Z,2.08
2022-11-24T20:44:07.238Z,4.20
2022-11-24T20:46:37.706Z,2.75
2022-11-24T20:49:07.180Z,1.60
2022-11-24T20:51:39.067Z,2.42
2022-11-24T20:54:09.570Z,2.10
2022-11-24T20:56:39.811Z,2.75
2022-11-24T20:59:07.857Z,1.48
2022-11-24T21:01:40.763Z,2.28
2022-11-24T21:04:10.099Z,1.73
2022-11-24T21:06:38.089Z,2.95
2022-11-24T21:09:07.933Z,3.45
2022-11-24T21:11:36.032Z,1.58
2022-11-24T21:14:03.745Z,1.83
2022-11-24T21:16:33.594Z,1.70
2022-11-24T21:19:04.576Z,2.08
2022-11-24T21:21:35.172Z,1.60
2022-11-24T21:24:07.611Z,1.83
2022-11-24T21:29:07.595Z,1.25
2022-11-24T21:31:39.403Z,1.35
2022-11-24T21:34:08.477Z,2.58
2022-11-24T21:36:40.692Z,1.90
2022-11-24T21:39:08.408Z,1.90
2022-11-24T21:41:35.969Z,2.13
2022-11-24T21:44:03.675Z,1.50
2022-11-24T21:46:39.023Z,1.83
2022-11-24T21:49:10.062Z,2.67
2022-11-24T21:51:37.591Z,1.92
2022-11-24T21:54:05.623Z,2.22
2022-11-24T21:56:33.127Z,2.08
2022-11-24T21:59:00.688Z,2.58
2022-11-24T22:01:29.500Z,1.33
2022-11-24T22:03:57.309Z,2.60
2022-11-24T22:06:24.895Z,2.88
2022-11-24T22:08:52.420Z,1.77
2022-11-24T22:11:22.682Z,3.72
2022-11-24T22:13:51.553Z,1.77
2022-11-24T22:16:24.754Z,2.72
2022-11-24T22:18:52.880Z,2.63
2022-11-24T22:21:23.847Z,1.70
2022-11-24T22:23:52.492Z,3.90
2022-11-24T22:26:22.406Z,2.70
2022-11-24T22:28:50.672Z,1.23
2022-11-24T22:31:21.063Z,1.67
2022-11-24T22:33:49.757Z,2.03
2022-11-24T22:36:18.704Z,3.05
2022-11-24T22:38:46.187Z,1.98
2022-11-24T22:41:16.444Z,2.20
2022-11-24T22:43:45.168Z,2.58
2022-11-24T22:46:21.495Z,3.88
2022-11-24T22:48:50.296Z,3.17
2022-11-24T22:51:20.966Z,2.78
2022-11-24T22:53:49.929Z,3.20
2022-11-24T22:56:18.180Z,2.20
2022-11-24T22:58:45.704Z,1.88
2022-11-24T23:01:16.133Z,1.85
2022-11-24T23:03:44.294Z,3.05
2022-11-24T23:06:20.410Z,2.15
2022-11-24T23:08:48.820Z,2.80
2022-11-24T23:11:23.741Z,2.40
2022-11-24T23:13:56.701Z,2.58
2022-11-24T23:16:25.189Z,2.20
2022-11-24T23:18:54.167Z,1.90
2022-11-24T23:21:24.464Z,1.90
2022-11-24T23:23:52.804Z,2.50
2022-11-24T23:26:23.189Z,2.10
2022-11-24T23:28:50.723Z,3.42
2022-11-24T23:31:21.495Z,2.08
2022-11-24T23:33:49.172Z,3.60
2022-11-24T23:36:18.776Z,3.22
2022-11-24T23:38:46.770Z,2.22
2022-11-24T23:41:26.229Z,2.30
2022-11-24T23:43:53.987Z,1.75
2022-11-24T23:46:24.212Z,2.20
2022-11-24T23:48:53.321Z,3.42
2022-11-24T23:51:26.756Z,1.70
2022-11-24T23:53:54.822Z,4.45
2022-11-24T23:56:26.964Z,1.88
2022-11-24T23:58:55.148Z,2.28
